Talmadge, Maine
Current Conditions -  °F | °C
As of 9:53 AM on Friday 19 Dec 2014 (Local Time) from KHUL Reporting Station
Overcast Overcast  
Wind Chill: 13°   Ceiling: 1700
Heat Index: 25°   Visibility: 10mi
Dew Point: 19°   Wind: 14mph
Humidity: 78%   Direction: 340°NNW
Pressure: 29.83"   Gusts: NA
Location:  45.3759°N, 67.6018°W
Report Text: KHUL 191453Z AUTO 34012KT 10SM OVC017 M04/M07 A2983 RMK AO2 SLP109 T10391072 51022
Loading
Personal Weather Stations






























Interactive Weather Map New forecast layout! Learn more

10-Day Weather Forecast

Advertisements
Track Severe Weather on mobile